KSXS

Shell AHP Heliport

Fort Rucker, Alabama, USA
METAR KSXS 200058Z AUTO 00000KT 10SM M 07/M09 A3027 RMK AO2 SLP256 T00701095 $
Observed Flight Rules
Jan-20 @ 00:58 UTC (22 minutes ago)
Wind Visibility
Calm 10 miles
Temperatures Readings
Current 7°C / 45°F
Dewpoint -10°C / 14°F
Humidity 29%
Altimeter 30.27" Hg
Pressure 1025.6 hPa
Elevation 122
METAR KSXS 200058Z AUTO 00000KT 10SM M 07/M09 A3027 RMK AO2 SLP256 T00701095 $
Observed Flight Rules
Jan-20 @ 00:58 UTC
(22 minutes ago)
Wind Visibility
Calm 10 miles
Temperature Dewpoint
7°C / 45°F -10°C / 14°F
Humidity Altimeter Pressure
29% 30.27" Hg 1025.6 hPa